Flight Track Log - Related Links

Times and Time Zones

All times are in EDT time to prevent confusion due to time zone crossing. See the UAL1677 flight status page for this flight to view local times or setup timezone preferences in your user account.

Time Position Orientation Groundspeed Altitude Reporting Facility
EDT Latitude Longitude Course Direction KTS MPH feet Rate Location/Type
Wed 02:18:12 PM 37.6500 -122.3500 43° Northeast 189 217 1,300  Level Northern Cal TRACON
Wed 02:19:12 PM 37.7000 -122.2833 47° Northeast 226 260 3,200 2,114 Climbing Northern Cal TRACON
Wed 02:20:00 PM 37.6205 -122.3929 117° Southeast  Level FlightAware Approximate
Wed 02:21:00 PM 37.7062 -122.2771 38° Northeast  Level FlightAware Approximate
Wed 02:21:08 PM 37.7956 -122.1700 43° Northeast 284 327 7,500  Level Oakland Center
Wed 02:22:00 PM 37.8129 -122.1705 38° Northeast  Level FlightAware Approximate
Wed 02:22:09 PM 37.8653 -122.1053 36° Northeast 306 352 10,000  Level Oakland Center
Wed 02:23:00 PM 37.9121 -122.0555 43° Northeast  Level FlightAware Approximate
Wed 02:23:11 PM 37.9589 -122.0161 37° Northeast 366 421 11,600  Level Oakland Center
Wed 02:24:12 PM 38.0422 -121.9353 37° Northeast 379 436 13,600 2,000 Climbing Oakland Center
Wed 02:25:14 PM 38.1303 -121.8519 37° Northeast 394 453 15,700 1,902 Climbing Oakland Center
Wed 02:26:15 PM 38.2214 -121.7647 37° Northeast 409 471 17,500 1,659 Climbing Oakland Center
Wed 02:27:17 PM 38.3147 -121.6736 37° Northeast 422 486 19,100 1,463 Climbing Oakland Center
Wed 02:28:18 PM 38.4131 -121.5794 37° Northeast 440 506 20,500 1,366 Climbing Oakland Center
Wed 02:29:20 PM 38.4978 -121.4572 48° Northeast 465 535 21,900 1,512 Climbing Oakland Center
Wed 02:30:21 PM 38.5906 -121.2975 53° Northeast 470 541 23,600 1,525 Climbing Oakland Center
Wed 02:31:22 PM 38.6717 -121.1619 53° Northeast 479 551 25,000 1,171 Climbing Oakland Center
Wed 02:32:24 PM 38.7425 -121.0389 54° Northeast 483 556 26,000 1,024 Climbing Oakland Center
Wed 02:33:25 PM 38.8242 -120.8972 53° Northeast 490 564 27,100 976 Climbing Oakland Center
Wed 02:34:27 PM 38.9247 -120.7222 54° Northeast 504 580 28,000 439 Climbing Oakland Center
Wed 02:35:28 PM 39.0075 -120.5756 54° Northeast 508 585 28,000  Level Oakland Center
Wed 02:36:30 PM 39.0917 -120.4294 53° Northeast 507 583 28,000 244 Level Oakland Center
Wed 02:37:31 PM 39.1750 -120.2839 54° Northeast 506 582 28,500 492 Climbing Oakland Center
Wed 02:38:32 PM 39.2589 -120.1392 53° Northeast 503 579 29,000 683 Climbing Oakland Center
Wed 02:39:34 PM 39.3531 -119.9817 52° Northeast 514 592 29,900 976 Climbing Oakland Center
Wed 02:40:35 PM 39.4361 -119.8317 54° Northeast 513 590 31,000 885 Climbing Oakland Center
Wed 02:41:36 PM 39.5203 -119.6814 54° Northeast 514 592 31,700 780 Climbing Oakland Center
Wed 02:42:38 PM 39.5889 -119.5150 62° Northeast 518 596 32,600 927 Climbing Oakland Center
Wed 02:43:39 PM 39.6558 -119.3483 62° Northeast 517 595 33,600 984 Climbing Oakland Center
Wed 02:44:40 PM 39.7208 -119.1797 63° Northeast 520 598 34,600 683 Climbing Oakland Center
Wed 02:45:42 PM 39.7853 -119.0125 63° Northeast 515 593 35,000 195 Climbing Oakland Center
Wed 02:46:43 PM 39.8519 -118.8436 63° Northeast 518 596 35,000  Level Oakland Center
Wed 02:47:45 PM 39.9156 -118.6761 64° Northeast 513 590 35,000  Level Oakland Center
Wed 02:48:46 PM 39.9808 -118.5094 63° Northeast 513 590 35,000  Level Oakland Center
Wed 02:49:47 PM 40.0439 -118.3403 64° Northeast 514 592 35,000  Level Oakland Center
Wed 02:50:49 PM 40.1197 -118.1394 64° Northeast 515 593 35,000  Level Oakland Center
Wed 02:51:20 PM 40.1422 -118.0797 64° Northeast 513 590 35,000  Level Salt Lake Center
Wed 02:52:22 PM 40.2131 -117.8925 64° Northeast 513 590 35,000  Level Salt Lake Center
Wed 02:52:52 PM 40.2456 -117.8031 65° Northeast 515 593 35,000  Level Oakland Center
Wed 02:53:53 PM 40.3028 -117.6517 64° Northeast 514 592 35,000  Level Oakland Center
Wed 02:54:26 PM 40.3422 -117.5442 64° Northeast 512 589 35,000  Level Salt Lake Center
Wed 02:55:28 PM 40.4022 -117.3828 64° Northeast 512 589 35,000  Level Salt Lake Center
Wed 02:56:30 PM 40.4717 -117.1947 64° Northeast 510 587 35,000  Level Salt Lake Center
Wed 02:57:32 PM 40.5331 -117.0328 63° Northeast 510 587 35,000  Level Salt Lake Center
Wed 02:58:34 PM 40.5928 -116.8656 65° Northeast 515 593 35,000  Level Salt Lake Center
Wed 02:59:36 PM 40.6661 -116.6778 63° Northeast 512 589 35,000  Level Salt Lake Center
Wed 03:00:38 PM 40.7286 -116.5178 63° Northeast 511 588 35,000  Level Salt Lake Center
Wed 03:01:40 PM 40.8006 -116.3308 63° Northeast 511 588 35,000  Level Salt Lake Center
Wed 03:02:42 PM 40.8625 -116.1700 63° Northeast 512 589 35,000  Level Salt Lake Center
Wed 03:03:44 PM 40.9344 -115.9811 63° Northeast 514 592 35,000  Level Salt Lake Center
Wed 03:04:46 PM 40.9958 -115.8194 63° Northeast 514 592 35,000  Level Salt Lake Center
Wed 03:05:48 PM 41.0558 -115.6581 64° Northeast 512 589 35,000  Level Salt Lake Center
Wed 03:06:50 PM 41.1267 -115.4694 63° Northeast 512 589 35,000  Level Salt Lake Center
Wed 03:07:52 PM 41.1864 -115.3078 64° Northeast 511 588 35,000  Level Salt Lake Center
Wed 03:08:54 PM 41.2556 -115.1186 64° Northeast 510 587 35,000  Level Salt Lake Center
Wed 03:09:56 PM 41.3161 -114.9567 63° Northeast 510 587 35,000  Level Salt Lake Center
Wed 03:10:58 PM 41.3833 -114.7650 65° Northeast 513 590 35,000  Level Salt Lake Center
Wed 03:12:00 PM 41.4461 -114.5969 63° Northeast 509 586 35,000  Level Salt Lake Center
Wed 03:13:02 PM 41.5069 -114.4272 64° Northeast 509 586 35,000  Level Salt Lake Center
Wed 03:14:04 PM 41.5678 -114.2583 64° Northeast 507 583 35,000  Level Salt Lake Center
Wed 03:15:06 PM 41.6281 -114.0894 64° Northeast 504 580 35,000  Level Salt Lake Center
Wed 03:16:08 PM 41.7011 -113.8861 64° Northeast 506 582 35,000  Level Salt Lake Center
Wed 03:17:09 PM 41.7606 -113.7147 65° Northeast 507 583 35,000  Level Salt Lake Center
Wed 03:18:11 PM 41.8208 -113.5442 65° Northeast 507 583 35,000  Level Salt Lake Center
Wed 03:19:13 PM 41.8789 -113.3742 65° Northeast 504 580 35,000  Level Salt Lake Center
Wed 03:20:15 PM 41.9378 -113.2033 65° Northeast 502 578 35,000  Level Salt Lake Center
Wed 03:21:17 PM 41.9967 -113.0325 65° Northeast 503 579 35,000  Level Salt Lake Center
Wed 03:22:19 PM 42.0564 -112.8594 65° Northeast 507 583 35,000  Level Salt Lake Center
Wed 03:23:22 PM 42.1256 -112.6517 66° East 507 583 35,000  Level Salt Lake Center
Wed 03:24:24 PM 42.1836 -112.4806 65° Northeast 504 580 35,000  Level Salt Lake Center
Wed 03:25:26 PM 42.2408 -112.3111 65° Northeast 500 575 35,000  Level Salt Lake Center
Wed 03:26:28 PM 42.2983 -112.1381 66° East 502 578 35,000  Level Salt Lake Center
Wed 03:27:30 PM 42.3547 -111.9656 66° East 502 578 35,000  Level Salt Lake Center
Wed 03:28:32 PM 42.4119 -111.7958 65° Northeast 498 573 35,000  Level Salt Lake Center
Wed 03:29:34 PM 42.4792 -111.5908 66° East 497 572 35,000  Level Salt Lake Center
Wed 03:30:36 PM 42.5353 -111.4183 66° East 500 575 35,000  Level Salt Lake Center
Wed 03:31:38 PM 42.5914 -111.2442 66° East 504 580 35,000  Level Salt Lake Center
Wed 03:32:40 PM 42.6472 -111.0692 67° East 505 581 35,000  Level Salt Lake Center
Wed 03:33:42 PM 42.7061 -110.8844 66° East 502 578 35,000  Level Salt Lake Center
Wed 03:34:44 PM 42.7667 -110.6933 67° East 503 579 35,000 48 Level Salt Lake Center
Wed 03:35:46 PM 42.8178 -110.5281 67° East 500 575 35,100  Climbing Salt Lake Center
Wed 03:36:48 PM 42.8717 -110.3292 70° East 501 577 35,000 -48 Descending Salt Lake Center
Wed 03:37:50 PM 42.9181 -110.1583 70° East 504 580 35,000  Level Salt Lake Center
Wed 03:38:52 PM 42.9725 -109.9594 69° East 502 578 35,000  Level Salt Lake Center
Wed 03:39:55 PM 43.0219 -109.7794 69° East 506 582 35,000  Level Salt Lake Center
Wed 03:40:56 PM 43.0692 -109.6050 70° East 509 586 35,000  Level Salt Lake Center
Wed 03:41:58 PM 43.1236 -109.4022 70° East 510 587 35,000  Level Salt Lake Center
Wed 03:43:00 PM 43.1694 -109.2278 70° East 508 585 35,000  Level Salt Lake Center
Wed 03:44:02 PM 43.2222 -109.0253 70° East 507 583 35,000  Level Salt Lake Center
Wed 03:45:04 PM 43.2694 -108.8514 69° East 507 583 35,000  Level Salt Lake Center
Wed 03:46:06 PM 43.3144 -108.6764 70° East 508 585 35,000  Level Salt Lake Center
Wed 03:47:08 PM 43.3672 -108.4714 70° East 509 586 35,000  Level Salt Lake Center
Wed 03:48:10 PM 43.4111 -108.2947 71° East 510 587 35,000  Level Salt Lake Center
Wed 03:49:12 PM 43.4631 -108.0900 71° East 508 585 35,000  Level Salt Lake Center
Wed 03:50:14 PM 43.5078 -107.9144 71° East 509 586 35,000  Level Salt Lake Center
Wed 03:51:16 PM 43.5592 -107.7081 71° East 510 587 35,000  Level Salt Lake Center
Wed 03:52:18 PM 43.6019 -107.5314 71° East 509 586 35,000  Level Salt Lake Center
Wed 03:53:20 PM 43.6531 -107.3250 71° East 509 586 35,000  Level Salt Lake Center
Wed 03:54:22 PM 43.7003 -107.1283 72° East 509 586 35,000  Level Salt Lake Center
Wed 03:55:24 PM 43.7433 -106.9508 71° East 509 586 35,000  Level Salt Lake Center
Wed 03:56:10 PM 43.7789 -106.7983 72° East 515 593 35,000  Level Denver Center
Wed 03:57:12 PM 43.8214 -106.6192 72° East 514 592 35,000  Level Denver Center
Wed 03:58:15 PM 43.8697 -106.4097 72° East 512 589 35,000  Level Denver Center
Wed 03:59:17 PM 43.9117 -106.2289 72° East 514 592 35,000  Level Denver Center
Wed 04:00:19 PM 43.9614 -106.0175 72° East 515 593 35,000  Level Denver Center
Wed 04:01:21 PM 44.0022 -105.8342 73° East 516 594 35,000  Level Denver Center
Wed 04:02:23 PM 44.0519 -105.6206 72° East 518 596 35,000  Level Denver Center
Wed 04:03:25 PM 44.0919 -105.4383 73° East 518 596 35,000  Level Denver Center
Wed 04:04:27 PM 44.1400 -105.2239 73° East 518 596 35,000  Level Denver Center
Wed 04:05:29 PM 44.1806 -105.0392 73° East 518 596 35,000  Level Denver Center
Wed 04:06:31 PM 44.2200 -104.8561 73° East 518 596 35,000  Level Denver Center
Wed 04:07:33 PM 44.2661 -104.6403 73° East 518 596 35,000  Level Denver Center
Wed 04:08:35 PM 44.3056 -104.4597 73° East 516 594 35,000  Level Denver Center
Wed 04:09:37 PM 44.3525 -104.2447 73° East 517 595 35,000  Level Denver Center
Wed 04:10:39 PM 44.3914 -104.0578 74° East 520 598 35,000  Level Denver Center
Wed 04:11:41 PM 44.4375 -103.8386 74° East 525 604 35,000  Level Denver Center
Wed 04:12:44 PM 44.4753 -103.6500 74° East 525 604 35,000  Level Denver Center
Wed 04:13:46 PM 44.5197 -103.4319 74° East 524 603 35,000  Level Denver Center
Wed 04:14:48 PM 44.5608 -103.2358 74° East 524 603 35,000  Level Denver Center
Wed 04:15:50 PM 44.5989 -103.0386 75° East 524 603 35,000  Level Denver Center
Wed 04:16:52 PM 44.6344 -102.8411 76° East 527 606 35,000  Level Denver Center
Wed 04:17:53 PM 44.6678 -102.6867 73° East 516 594 35,000  Level Denver Center
Wed 04:18:56 PM 44.7133 -102.4539 75° East 516 594 35,000  Level Denver Center
Wed 04:19:58 PM 44.7583 -102.2197 75° East 517 595 35,000  Level Denver Center
Wed 04:21:00 PM 44.7953 -102.0214 75° East 522 601 35,000  Level Denver Center
Wed 04:22:02 PM 44.8325 -101.8256 75° East 520 598 35,000  Level Denver Center
Wed 04:23:04 PM 44.8692 -101.6289 75° East 519 597 35,000  Level Denver Center
Wed 04:24:06 PM 44.9050 -101.4283 76° East 526 605 35,000  Level Denver Center
Wed 04:25:08 PM 44.9322 -101.2708 76° East 522 601 35,000  Level Denver Center
Wed 04:26:10 PM 44.9797 -100.9931 76° East 520 598 35,000  Level Denver Center
Wed 04:27:36 PM 45.0317 -100.7144 75° East 523 602 35,000  Level Minneapolis Center
Wed 04:28:38 PM 45.0675 -100.5142 76° East 523 602 35,000  Level Minneapolis Center
Wed 04:29:41 PM 45.1025 -100.3142 76° East 523 602 35,000  Level Minneapolis Center
Wed 04:30:43 PM 45.1378 -100.1103 76° East 525 604 35,000  Level Minneapolis Center
Wed 04:31:45 PM 45.1758 -99.8975 76° East 534 615 35,000  Level Minneapolis Center
Wed 04:32:47 PM 45.2081 -99.6922 77° East 531 611 35,000  Level Minneapolis Center
Wed 04:33:49 PM 45.2408 -99.4903 77° East 525 604 35,000  Level Minneapolis Center
Wed 04:34:51 PM 45.2733 -99.2892 77° East 523 602 35,000  Level Minneapolis Center
Wed 04:35:53 PM 45.3122 -99.0481 77° East 522 601 35,000  Level Minneapolis Center
Wed 04:36:55 PM 45.3436 -98.8458 77° East 523 602 35,000  Level Minneapolis Center
Wed 04:37:57 PM 45.3756 -98.6444 77° East 523 602 35,000  Level Minneapolis Center
Wed 04:38:59 PM 45.4075 -98.4411 77° East 525 604 35,000  Level Minneapolis Center
Wed 04:40:01 PM 45.4200 -98.2758 84° East 527 606 35,000  Level Minneapolis Center
Wed 04:41:04 PM 45.4058 -98.0094 94° East 541 623 35,000  Level Minneapolis Center
Wed 04:42:06 PM 45.3983 -97.7981 93° East 537 618 35,000  Level Minneapolis Center
Wed 04:43:08 PM 45.3897 -97.5422 93° East 539 620 35,000  Level Minneapolis Center
Wed 04:44:10 PM 45.3794 -97.3297 94° East 539 620 35,000  Level Minneapolis Center
Wed 04:45:12 PM 45.3714 -97.1186 93° East 537 618 35,000  Level Minneapolis Center
Wed 04:46:14 PM 45.3617 -96.9081 94° East 535 616 35,000  Level Minneapolis Center
Wed 04:47:16 PM 45.3522 -96.6969 94° East 536 617 35,000  Level Minneapolis Center
Wed 04:48:18 PM 45.3408 -96.4856 94° East 537 618 35,000  Level Minneapolis Center
Wed 04:49:20 PM 45.3294 -96.2764 94° East 532 612 35,000  Level Minneapolis Center
Wed 04:50:22 PM 45.3175 -96.0236 94° East 534 615 35,000  Level Minneapolis Center
Wed 04:51:24 PM 45.3061 -95.8153 94° East 531 611 35,000  Level Minneapolis Center
Wed 04:52:26 PM 45.2956 -95.6078 94° East 528 608 35,000  Level Minneapolis Center
Wed 04:53:29 PM 45.2833 -95.4008 95° East 527 606 35,000 48 Level Minneapolis Center
Wed 04:54:31 PM 45.2708 -95.1933 95° East 527 606 35,100 435 Climbing Minneapolis Center
Wed 04:55:33 PM 45.2583 -94.9833 95° East 531 611 35,900 919 Climbing Minneapolis Center
Wed 04:56:35 PM 45.2428 -94.7336 95° East 531 611 37,000 532 Climbing Minneapolis Center
Wed 04:57:37 PM 45.2308 -94.5572 95° East 524 603 37,000  Level Minneapolis Center
Wed 04:58:39 PM 45.1339 -94.3589 125° Southeast 524 603 37,000  Level Minneapolis Center
Wed 04:59:41 PM 45.0281 -94.2189 137° Southeast 523 602 37,000  Level Minneapolis Center
Wed 05:00:44 PM 44.9228 -94.0797 137° Southeast 525 604 37,000  Level Minneapolis Center
Wed 05:01:46 PM 44.8208 -93.9403 136° Southeast 517 595 37,000  Level Minneapolis Center
Wed 05:03:00 PM 44.7181 -93.8044 137° Southeast 513 590 37,000  Level Minneapolis Center
Wed 05:04:02 PM 44.5722 -93.6144 137° Southeast 518 596 37,000  Level Minneapolis Center
Wed 05:05:04 PM 44.4697 -93.4822 137° Southeast 514 592 37,000  Level Minneapolis Center
Wed 05:06:07 PM 44.3683 -93.3483 137° Southeast 510 587 37,000  Level Minneapolis Center
Wed 05:08:11 PM 44.1506 -93.0658 137° Southeast 492 566 37,000  Level Minneapolis Center
Wed 05:09:12 PM 44.0719 -92.9658 138° Southeast 485 558 37,000  Level Minneapolis Center
Wed 05:10:15 PM 43.9553 -92.8156 137° Southeast 482 555 37,000  Level Minneapolis Center
Wed 05:11:17 PM 43.8533 -92.7019 141° Southeast 474 545 37,000  Level Minneapolis Center
Wed 05:12:19 PM 43.7492 -92.5925 143° Southeast 473 544 37,000  Level Minneapolis Center
Wed 05:13:21 PM 43.6303 -92.4583 141° Southeast 471 542 37,000  Level Minneapolis Center
Wed 05:14:23 PM 43.5550 -92.3114 125° Southeast 472 543 37,000 -387 Level Minneapolis Center
Wed 05:15:25 PM 43.4900 -92.1608 121° Southeast 462 532 36,200 -871 Descending Minneapolis Center
Wed 05:16:27 PM 43.4603 -91.9869 103° East 469 540 35,200 -571 Descending Minneapolis Center
Wed 05:17:31 PM 43.4617 -91.8119 89° East 464 534 35,000 -96 Descending Minneapolis Center
Wed 05:18:32 PM 43.4808 -91.6417 81° East 456 525 35,000  Level Minneapolis Center
Wed 05:19:47 PM 43.5161 -91.4019 78° East 454 522 35,000  Level Minneapolis Center
Wed 05:20:49 PM 43.5531 -91.2397 73° East 453 521 35,000  Level Minneapolis Center
Wed 05:21:51 PM 43.6100 -91.0861 63° Northeast 452 520 35,000  Level Minneapolis Center
Wed 05:22:53 PM 43.6625 -90.9289 65° Northeast 453 521 35,000  Level Minneapolis Center
Wed 05:23:56 PM 43.7272 -90.7419 64° Northeast 453 521 35,000  Level Minneapolis Center
Wed 05:24:58 PM 43.7864 -90.5706 64° Northeast 461 531 35,000 194 Level Minneapolis Center
Wed 05:26:00 PM 43.8408 -90.4061 65° Northeast 468 539 35,400 532 Climbing Minneapolis Center
Wed 05:27:02 PM 43.8967 -90.2400 65° Northeast 474 545 36,100 677 Climbing Minneapolis Center
Wed 05:28:04 PM 43.9514 -90.0717 66° East 482 555 36,800 435 Climbing Minneapolis Center
Wed 05:29:06 PM 44.0067 -89.9036 65° Northeast 478 550 37,000 97 Climbing Minneapolis Center
Wed 05:30:08 PM 44.0628 -89.7358 65° Northeast 477 549 37,000  Level Minneapolis Center
Wed 05:31:10 PM 44.1275 -89.5400 65° Northeast 477 549 37,000  Level Minneapolis Center
Wed 05:32:12 PM 44.1817 -89.3711 66° East 475 547 37,000  Level Minneapolis Center
Wed 05:33:14 PM 44.2378 -89.1992 65° Northeast 482 555 37,000  Level Minneapolis Center
Wed 05:34:17 PM 44.2875 -89.0219 69° East 488 562 37,000  Level Minneapolis Center
Wed 05:35:19 PM 44.3031 -88.8319 83° East 493 567 37,000  Level Minneapolis Center
Wed 05:36:21 PM 44.3164 -88.6394 84° East 495 570 37,000  Level Minneapolis Center
Wed 05:37:23 PM 44.3317 -88.4164 84° East 492 566 37,000  Level Minneapolis Center
Wed 05:38:25 PM 44.3456 -88.2258 84° East 493 567 37,000  Level Minneapolis Center
Wed 05:39:27 PM 44.3567 -88.0356 85° East 491 565 37,000  Level Minneapolis Center
Wed 05:40:29 PM 44.3681 -87.8461 85° East 489 563 37,000  Level Minneapolis Center
Wed 05:41:31 PM 44.3806 -87.6578 85° East 486 559 37,000  Level Minneapolis Center
Wed 05:42:33 PM 44.3908 -87.4694 86° East 485 558 37,000  Level Minneapolis Center
Wed 05:43:35 PM 44.4039 -87.2494 85° East 486 559 37,000  Level Minneapolis Center
Wed 05:44:38 PM 44.4139 -87.0581 86° East 485 558 37,000  Level Minneapolis Center
Wed 05:45:40 PM 44.4231 -86.8708 86° East 485 558 37,000  Level Minneapolis Center
Wed 05:46:42 PM 44.4333 -86.6858 85° East 483 556 37,000  Level Minneapolis Center
Wed 05:47:44 PM 44.4428 -86.4978 86° East 486 559 37,000  Level Minneapolis Center
Wed 05:48:46 PM 44.4531 -86.3103 86° East 488 562 37,000  Level Minneapolis Center
Wed 05:49:48 PM 44.4622 -86.0858 87° East 487 560 37,000  Level Minneapolis Center
Wed 05:50:50 PM 44.4717 -85.8978 86° East 492 566 37,000  Level Minneapolis Center
Wed 05:51:52 PM 44.4794 -85.7086 87° East 493 567 37,000  Level Minneapolis Center
Wed 05:52:54 PM 44.4875 -85.5192 87° East 492 566 37,000  Level Minneapolis Center
Wed 05:53:56 PM 44.5017 -85.3294 84° East 493 567 37,000  Level Minneapolis Center
Wed 05:54:58 PM 44.5194 -85.0992 84° East 497 572 37,000  Level Minneapolis Center
Wed 05:56:00 PM 44.5242 -84.9075 88° East 496 571 37,000  Level Minneapolis Center
Wed 05:57:02 PM 44.5308 -84.7150 87° East 495 570 37,000  Level Minneapolis Center
Wed 05:59:05 PM 44.5431 -84.3275 87° East 500 575 37,000  Level Minneapolis Center
Wed 06:00:07 PM 44.5506 -84.0956 87° East 498 573 37,000  Level Minneapolis Center
Wed 06:01:10 PM 44.5556 -83.9000 88° East 501 577 37,000  Level Minneapolis Center
Wed 06:02:12 PM 44.5589 -83.7044 89° East 503 579 37,000  Level Minneapolis Center
Wed 06:03:13 PM 44.5647 -83.5089 88° East 504 580 37,000  Level Minneapolis Center
Wed 06:04:15 PM 44.5700 -83.3133 88° East 504 580 37,000  Level Minneapolis Center
Wed 06:05:17 PM 44.5736 -83.1169 88° East 505 581 37,000  Level Minneapolis Center
Wed 06:06:19 PM 44.5761 -82.8831 89° East 503 579 37,000  Level Minneapolis Center
Wed 06:07:21 PM 44.5792 -82.6889 89° East 501 577 37,000  Level Minneapolis Center
Wed 06:08:23 PM 44.5828 -82.4944 88° East 500 575 37,000  Level Minneapolis Center
Wed 06:09:14 PM 44.5667 -82.3000 97° East 500 575 37,000  Level Toronto Center
Wed 06:10:14 PM 44.5667 -82.1167 90° East 500 575 37,000  Level Toronto Center
Wed 06:11:14 PM 44.5833 -81.9333 83° East 500 575 37,000  Level Toronto Center
Wed 06:12:14 PM 44.5833 -81.7167 90° East 500 575 37,000  Level Toronto Center
Wed 06:13:14 PM 44.5833 -81.5333 90° East 510 587 37,000  Level Toronto Center
Wed 06:14:14 PM 44.5667 -81.3167 96° East 510 587 37,000  Level Toronto Center
Wed 06:15:14 PM 44.5667 -81.1333 90° East 500 575 37,000  Level Toronto Center
Wed 06:16:14 PM 44.5667 -80.9500 90° East 500 575 37,000  Level Toronto Center
Wed 06:17:14 PM 44.5833 -80.7333 84° East 500 575 37,000  Level Toronto Center
Wed 06:18:14 PM 44.5833 -80.5500 90° East 500 575 37,000  Level Toronto Center
Wed 06:19:14 PM 44.5833 -80.3500 90° East 490 564 37,000  Level Toronto Center
Wed 06:20:14 PM 44.5833 -80.1667 90° East 490 564 37,000  Level Toronto Center
Wed 06:21:14 PM 44.5667 -79.9833 97° East 490 564 37,000  Level Toronto Center
Wed 06:22:14 PM 44.5667 -79.7667 90° East 490 564 37,000  Level Toronto Center
Wed 06:23:14 PM 44.5500 -79.6167 99° East 490 564 37,000  Level Toronto Center
Wed 06:24:14 PM 44.5167 -79.4000 102° East 490 564 37,000  Level Toronto Center
Wed 06:25:14 PM 44.4833 -79.2167 104° East 500 575 37,000  Level Toronto Center
Wed 06:26:14 PM 44.4667 -79.0500 98° East 490 564 37,000  Level Toronto Center
Wed 06:27:14 PM 44.4333 -78.8333 102° East 500 575 37,000  Level Toronto Center
Wed 06:28:14 PM 44.4000 -78.6500 104° East 500 575 37,000  Level Toronto Center
Wed 06:29:14 PM 44.3500 -78.4667 111° Southeast 500 575 37,000  Level Toronto Center
Wed 06:30:14 PM 44.3333 -78.2833 97° East 500 575 37,000  Level Toronto Center
Wed 06:31:14 PM 44.3000 -78.0667 102° East 500 575 37,000 -450 Level Toronto Center
Wed 06:32:14 PM 44.3167 -77.8833 83° East 490 564 36,100 -950 Descending Toronto Center
Wed 06:33:14 PM 44.3333 -77.7000 83° East 490 564 35,100 -550 Descending Toronto Center
Wed 06:34:14 PM 44.3500 -77.5167 83° East 500 575 35,000 -150 Descending Toronto Center
Wed 06:35:14 PM 44.3500 -77.3167 90° East 500 575 34,800 -600 Descending Toronto Center
Wed 06:36:14 PM 44.3833 -77.1333 76° East 480 552 33,800 -1,000 Descending Toronto Center
Wed 06:37:14 PM 44.4333 -76.9667 67° East 480 552 32,800 -950 Descending Toronto Center
Wed 06:38:14 PM 44.4000 -76.7667 103° East 490 564 31,900 -950 Descending Toronto Center
Wed 06:39:14 PM 44.2833 -76.7000 158° South 520 598 30,900 -950 Descending Toronto Center
Wed 06:40:14 PM 44.1167 -76.6167 160° South 520 598 30,000 -950 Descending Toronto Center
Wed 06:41:14 PM 43.9833 -76.5500 160° South 510 587 29,000 -1,000 Descending Toronto Center
Wed 06:42:14 PM 43.8500 -76.4833 160° South 520 598 28,000 -950 Descending Toronto Center
Wed 06:43:14 PM 43.7167 -76.4333 165° South 530 610 27,100 -500 Descending Toronto Center
Wed 06:44:14 PM 43.5833 -76.3667 160° South 530 610 27,000 -48 Descending Toronto Center
Wed 06:45:19 PM 43.4450 -76.3325 170° South 529 609 27,000 -48 Level Boston Center
Wed 06:46:19 PM 43.3031 -76.2722 163° South 529 609 26,900  Descending Boston Center
Wed 06:47:19 PM 43.1861 -76.1567 144° Southeast 528 608 27,000  Climbing Boston Center
Wed 06:48:19 PM 43.0819 -76.0222 137° Southeast 519 597 26,900 -50 Descending Boston Center
Wed 06:49:19 PM 42.9756 -75.8883 137° Southeast 519 597 26,900 50 Level Boston Center
Wed 06:50:19 PM 42.8772 -75.7639 137° Southeast 514 592 27,000 -450 Climbing Boston Center
Wed 06:51:19 PM 42.7864 -75.6514 138° Southeast 479 551 26,000 -1,050 Descending Boston Center
Wed 06:52:19 PM 42.6778 -75.5919 158° South 430 495 24,900 -1,050 Descending Boston Center
Wed 06:53:19 PM 42.5725 -75.5528 165° South 407 468 23,900 -1,000 Descending Boston Center
Wed 06:54:19 PM 42.4692 -75.5139 164° South 396 456 22,900 -1,000 Descending Boston Center
Wed 06:55:19 PM 42.3792 -75.4533 154° Southeast 384 442 21,900 -900 Descending Boston Center
Wed 06:56:19 PM 42.3136 -75.3322 126° Southeast 379 436 21,100 -800 Descending Boston Center
Wed 06:57:19 PM 42.2456 -75.2167 128° Southeast 391 450 20,300 -1,000 Descending Boston Center
Wed 06:58:19 PM 42.1653 -75.0900 131° Southeast 411 473 19,100 -700 Descending Boston Center
Wed 06:59:19 PM 42.1031 -74.9867 129° Southeast 390 449 18,900 -50 Descending Boston Center
Wed 07:00:19 PM 42.0444 -74.8919 130° Southeast 371 427 19,000 -750 Climbing Boston Center
Wed 07:01:19 PM 41.9761 -74.7803 129° Southeast 357 411 17,400 -1,500 Descending Boston Center
Wed 07:02:19 PM 41.9719 -74.6686 93° East 318 366 16,000 -1,200 Descending Boston Center
Wed 07:03:19 PM 41.9892 -74.5350 80° East 318 366 15,000 -500 Descending Boston Center
Wed 07:04:19 PM 41.9556 -74.4361 115° Southeast 312 359 15,000  Level Boston Center
Wed 07:05:19 PM 41.9153 -74.3594 125° Southeast 312 359 15,000 -600 Level Boston Center
Wed 07:06:19 PM 41.8222 -74.3067 157° South 309 356 13,800 -1,300 Descending Boston Center
Wed 07:07:19 PM 41.7267 -74.2897 172° South 302 348 12,400 -1,300 Descending Boston Center
Wed 07:08:19 PM 41.6517 -74.2906 180° South 311 358 11,200 -1,350 Descending Boston Center
Wed 07:09:19 PM 41.5678 -74.3242 197° South 305 351 9,700 -1,400 Descending Boston Center
Wed 07:10:19 PM 41.5006 -74.3525 198° South 289 333 8,400 -976 Descending Boston Center
Wed 07:12:05 PM 41.3500 -74.4000 193° South 274 315 7,000 -795 Descending New York TRACON
Wed 07:13:05 PM 41.2833 -74.4000 180° South 280 322 6,200 -500 Descending New York TRACON
Wed 07:14:05 PM 41.2000 -74.4000 180° South 272 313 6,000 -550 Descending New York TRACON
Wed 07:15:05 PM 41.1333 -74.3500 151° Southeast 292 336 5,100 -550 Descending New York TRACON
Wed 07:16:05 PM 41.0833 -74.2833 135° Southeast 261 300 4,900 -300 Descending New York TRACON
Wed 07:17:05 PM 41.0167 -74.2333 150° Southeast 232 267 4,500 -429 Descending New York TRACON
Wed 07:18:11 PM 40.9833 -74.1833 131° Southeast 213 245 4,000 -476 Descending New York TRACON
Wed 07:19:11 PM 40.9500 -74.1167 123° Southeast 201 231 3,500 -500 Descending New York TRACON
Wed 07:20:11 PM 40.9000 -74.0833 153° Southeast 196 226 3,000 -250 Descending New York TRACON
Wed 07:21:11 PM 40.8500 -74.0667 166° South 191 220 3,000 -350 Level New York TRACON
Wed 07:22:11 PM 40.8000 -74.1000 207° Southwest 185 213 2,300 -835 Descending New York TRACON
Wed 07:23:06 PM 40.7667 -74.1167 201° Southwest 173 199 1,400 -900 Descending New York TRACON
Wed 07:24:11 PM 40.7167 -74.1500 207° Southwest 159 183 500 -831 Descending New York TRACON

Login

Don't have an account? Register now (free) for customized features, flight alerts, and more!